FZQA

Lubumbashi International Airport

Lubumbashi, Congo, Democratic Republic of
METAR FZQA 160900Z 09004KT 9999 BKN090 21/18 Q1021 NOSIG
Observed Flight Rules
Dec-16 @ 09:00 UTC (15 hours ago) Visual Flight Rules
Wind Visibility Clouds
90° at 4 knots 10,000+ meters
  • Broken at 9,000' AGL
Temperatures Readings
Current 21°C / 70°F
Dewpoint 18°C / 64°F
Humidity 83%
Altimeter 30.15" Hg
Pressure 1021 hPa
Elevation 1309
METAR FZQA 160900Z 09004KT 9999 BKN090 21/18 Q1021 NOSIG
Observed Flight Rules
Dec-16 @ 09:00 UTC
(15 hours ago)
VFR
Wind Visibility
90° at 4 knots 10,000+ meters
Clouds
  • Broken at 9,000' AGL
Temperature Dewpoint
21°C / 70°F 18°C / 64°F
Humidity Altimeter Pressure
83% 30.15" Hg 1021 hPa